Overview Statistics Trail Chart Weather Telemetry Raw packets
 

This is the latest recevied weather packets stored in our database for station/object KI5NXU. If no packets are shown the sender has not sent any weather packets the latest 10 day(s).

<< 15 16 17 18 19 20 21 >>
Time Temp. Humidity Pressure Rain* Wind** Luminosity Snow
1788285676 36.67° C 38% 1016 hPa 0 mm - 161 W/m² -
1788285374 37.78° C 35% 1016.1 hPa 0 mm - 827 W/m² -
1788285070 37.22° C 36% 1015.9 hPa 0 mm - 810 W/m² -
1788284765 37.22° C 39% 1016 hPa 0 mm - 699 W/m² -
1788284461 37.22° C 39% 1016.4 hPa 0 mm - 177 W/m² -
1788284156 37.22° C 38% 1016.3 hPa 0 mm - 778 W/m² -
1788283852 37.22° C 38% 1016.4 hPa 0 mm - 785 W/m² -
1788283547 36.67° C 40% 1016.4 hPa 0 mm - 822 W/m² -
1788283245 36.11° C 41% 1016.4 hPa 0 mm - 821 W/m² -
1788282939 35° C 43% 1016.6 hPa 0 mm - 792 W/m² -
1788282637 33.89° C 46% 1016.7 hPa 0 mm - 197 W/m² -
1788282332 34.44° C 46% 1016.7 hPa 0 mm - 129 W/m² -
1788282026 35.56° C 43% 1016.6 hPa 0 mm - 137 W/m² -
1788281722 35.56° C 43% 1016.8 hPa 0 mm - 816 W/m² -
1788281417 35° C 47% 1016.9 hPa 0 mm - 780 W/m² -
1788281112 34.44° C 48% 1016.9 hPa 0 mm - 756 W/m² -
1788280807 34.44° C 50% 1017 hPa 0 mm - 783 W/m² -
1788280503 33.89° C 51% 1016.8 hPa 0 mm - 164 W/m² -
1788280201 33.89° C 53% 1016.8 hPa 0 mm - 736 W/m² -
1788279897 33.33° C 51% 1016.8 hPa 0 mm - 718 W/m² -
1788279596 33.33° C 51% 1016.9 hPa 0 mm - 729 W/m² -
1788279295 33.33° C 52% 1017 hPa 0 mm - 727 W/m² -
1788278990 32.78° C 52% 1016.8 hPa 0 mm - 696 W/m² -
1788278686 32.78° C 53% 1016.9 hPa 0 mm - 698 W/m² -
1788278385 32.22° C 54% 1017 hPa 0 mm - 683 W/m² -

* Rain latest hour (hover to see other rain measurements)
** Current wind speed in m/s (hover to see current wind gust speed)